Time;durP1;ratioP1;P1;durP2;ratioP2;P2;SDS_P1;SDS_P2;PMS_P1;PMS_P2;Temp;Humidity;BMP_temperature;BMP_pressure;BME280_temperature;BME280_humidity;BME280_pressure;Samples;Min_cycle;Max_cycle;Signal;HPM_P1;HPM_P2
2023/02/01 01:24:31;;;;;;;25.60;11.35;;;;;;;0.71;89.73;99530.10;1829185;78;28085;-63
2023/02/01 01:27:00;;;;;;;21.80;10.30;;;;;;;0.64;89.59;99532.05;1821259;79;21557;-64
2023/02/01 01:29:31;;;;;;;36.00;11.80;;;;;;;0.62;89.65;99534.05;1821128;78;21830;-62
2023/02/01 01:32:00;;;;;;;20.17;8.35;;;;;;;0.61;89.75;99531.51;1821180;79;21086;-63
2023/02/01 01:34:29;;;;;;;21.95;6.95;;;;;;;0.58;89.74;99531.31;1821434;79;21105;-62
2023/02/01 01:36:58;;;;;;;12.53;5.78;;;;;;;0.56;90.02;99523.89;1821388;79;21181;-62
2023/02/01 01:39:27;;;;;;;10.80;5.30;;;;;;;0.59;90.09;99520.03;1821136;79;21106;-63
2023/02/01 01:41:57;;;;;;;20.32;7.30;;;;;;;0.61;90.08;99518.03;1821445;79;21106;-62
2023/02/01 01:45:05;;;;;;;21.35;8.40;;;;;;;0.62;90.01;99517.88;1821296;79;21111;-62
2023/02/01 01:47:41;;;;;;;20.10;7.05;;;;;;;0.63;89.96;99516.88;1821349;79;21111;-63
2023/02/01 01:50:13;;;;;;;19.35;7.90;;;;;;;0.63;89.94;99514.68;1821087;79;21126;-63
2023/02/01 01:52:42;;;;;;;17.80;6.83;;;;;;;0.63;89.91;99512.83;1821354;79;21070;-63
2023/02/01 01:55:10;;;;;;;15.63;7.00;;;;;;;0.64;89.76;99515.02;1821290;79;21133;-63
2023/02/01 01:57:42;;;;;;;15.68;6.10;;;;;;;0.62;89.70;99501.70;1821254;79;21086;-62
2023/02/01 02:00:15;;;;;;;16.73;6.25;;;;;;;0.58;89.64;99505.71;1821133;79;21113;-63
2023/02/01 02:02:51;;;;;;;12.18;5.90;;;;;;;0.56;89.61;99500.98;1820980;79;21090;-62
2023/02/01 02:05:20;;;;;;;18.52;6.85;;;;;;;0.56;89.64;99494.24;1787331;78;21082;-63
2023/02/01 02:07:49;;;;;;;16.37;6.28;;;;;;;0.56;89.61;99490.70;1821374;79;21090;-62
2023/02/01 02:10:18;;;;;;;15.93;5.87;;;;;;;0.55;89.58;99490.36;1821342;78;21114;-63
2023/02/01 02:12:48;;;;;;;13.48;6.22;;;;;;;0.54;89.72;99492.70;1821190;79;21153;-64
2023/02/01 02:15:17;;;;;;;13.85;6.37;;;;;;;0.56;89.97;99488.85;1821343;79;21552;-63
2023/02/01 02:18:04;;;;;;;15.75;6.85;;;;;;;0.58;89.89;99487.34;1821372;79;21094;-63
2023/02/01 02:21:00;;;;;;;16.25;5.70;;;;;;;0.58;89.90;99486.84;1821101;79;21600;-64
2023/02/01 02:23:59;;;;;;;11.03;4.85;;;;;;;0.60;89.94;99481.30;1819065;79;21580;-65
2023/02/01 02:27:01;;;;;;;19.57;8.70;;;;;;;0.60;90.06;99482.65;1786841;79;21154;-62
2023/02/01 02:29:57;;;;;;;19.65;8.80;;;;;;;0.63;90.04;99475.59;1816139;78;21074;-62
2023/02/01 02:32:53;;;;;;;19.85;7.22;;;;;;;0.62;89.93;99479.30;1815834;79;21101;-63
2023/02/01 02:35:36;;;;;;;16.80;7.47;;;;;;;0.58;89.73;99478.77;1787162;79;21153;-63
2023/02/01 02:38:33;;;;;;;19.32;8.00;;;;;;;0.49;89.54;99482.89;1816212;78;21102;-65
2023/02/01 02:41:07;;;;;;;17.20;7.80;;;;;;;0.40;89.50;99484.67;1815944;79;21082;-64
2023/02/01 02:49:43;;;;;;;15.15;5.58;;;;;;;0.43;90.13;99477.63;1815931;79;21497;-63
2023/02/01 02:55:07;;;;;;;17.40;6.65;;;;;;;0.45;90.22;99483.70;1816149;79;21153;-63
2023/02/01 03:06:05;;;;;;;15.28;6.58;;;;;;;0.44;90.33;99482.52;1816011;77;21130;-64
2023/02/01 03:08:36;;;;;;;16.30;7.10;;;;;;;0.43;90.43;99476.78;1816184;79;21146;-64
2023/02/01 03:11:09;;;;;;;15.85;6.10;;;;;;;0.40;90.50;99477.94;1816132;79;21125;-62
2023/02/01 03:13:53;;;;;;;16.48;6.60;;;;;;;0.40;90.73;99475.25;1815981;79;21106;-62
2023/02/01 03:16:42;;;;;;;19.82;7.22;;;;;;;0.42;90.79;99474.59;1816167;77;21127;-64
2023/02/01 03:19:29;;;;;;;17.40;7.00;;;;;;;0.45;90.92;99480.17;1805514;79;21596;-63
2023/02/01 03:22:04;;;;;;;16.90;7.00;;;;;;;0.45;90.97;99479.67;1815983;79;21118;-64
2023/02/01 03:24:51;;;;;;;16.23;7.20;;;;;;;0.46;91.05;99478.66;1816035;77;21137;-64
2023/02/01 03:27:55;;;;;;;16.60;6.33;;;;;;;0.47;91.11;99479.02;1816059;78;21090;-63
2023/02/01 03:30:30;;;;;;;17.12;6.70;;;;;;;0.48;91.23;99471.27;1815865;79;21619;-63
2023/02/01 03:33:02;;;;;;;14.00;6.40;;;;;;;0.51;91.25;99468.77;1815817;79;21121;-64
2023/02/01 03:36:04;;;;;;;15.08;6.08;;;;;;;0.51;91.14;99473.66;1816054;79;21122;-64
2023/02/01 03:38:44;;;;;;;17.25;6.80;;;;;;;0.49;91.03;99469.42;1816104;79;21547;-63
2023/02/01 03:41:44;;;;;;;15.68;6.58;;;;;;;0.44;90.96;99467.20;1815969;79;21141;-64
2023/02/01 03:44:29;;;;;;;14.00;5.92;;;;;;;0.42;91.07;99472.39;1719104;83;21168;-63
2023/02/01 03:47:10;;;;;;;19.75;6.75;;;;;;;0.40;91.17;99461.77;1719088;83;21259;-62
2023/02/01 03:49:52;;;;;;;16.67;6.72;;;;;;;0.41;91.25;99476.09;1719162;83;21549;-62
2023/02/01 03:52:38;;;;;;;16.15;6.70;;;;;;;0.41;91.29;99466.16;1675450;83;21674;-65
2023/02/01 03:55:08;;;;;;;13.63;5.87;;;;;;;0.43;91.35;99466.01;1719209;83;21147;-64
2023/02/01 03:57:42;;;;;;;15.78;6.78;;;;;;;0.45;91.49;99464.00;1718946;83;21605;-63
2023/02/01 04:00:18;;;;;;;20.95;7.35;;;;;;;0.46;91.55;99461.66;1719074;83;21203;-63
2023/02/01 04:02:47;;;;;;;;;;;;;;;0.46;91.58;99459.80;1721490;83;21136;-63
2023/02/01 04:05:16;;;;;;;17.15;7.33;;;;;;;0.47;91.54;99464.69;1718981;83;20473;-63
2023/02/01 04:07:47;;;;;;;16.45;6.95;;;;;;;0.47;91.57;99468.73;1718852;83;21108;-64
2023/02/01 04:10:17;;;;;;;15.80;6.67;;;;;;;0.48;91.50;99466.38;1719001;82;21595;-63
2023/02/01 04:12:49;;;;;;;17.67;6.90;;;;;;;0.49;91.47;99465.38;1718987;82;21128;-62
2023/02/01 04:15:18;;;;;;;14.93;6.80;;;;;;;0.50;91.50;99464.38;1718797;83;21595;-63
2023/02/01 04:17:48;;;;;;;20.50;7.90;;;;;;;0.52;91.51;99470.45;1718926;82;21155;-62
2023/02/01 04:20:17;;;;;;;20.70;7.70;;;;;;;0.53;91.50;99472.15;1719149;83;21599;-64
2023/02/01 04:22:46;;;;;;;25.23;7.67;;;;;;;0.53;91.44;99472.15;1719056;82;21175;-63
2023/02/01 04:25:17;;;;;;;20.60;7.22;;;;;;;0.54;91.52;99472.49;1718981;83;21160;-63
2023/02/01 04:27:49;;;;;;;17.60;7.22;;;;;;;0.53;91.51;99471.64;1719007;83;21615;-63
2023/02/01 04:30:18;;;;;;;18.45;7.35;;;;;;;0.53;91.47;99474.84;1718964;82;21215;-62
2023/02/01 04:32:46;;;;;;;19.57;8.33;;;;;;;0.53;91.42;99475.69;1719123;83;21159;-64
2023/02/01 04:35:17;;;;;;;21.17;9.55;;;;;;;0.51;91.35;99477.70;1719014;83;21120;-64
2023/02/01 04:37:46;;;;;;;21.52;8.53;;;;;;;0.49;91.36;99472.97;1718753;83;21556;-63
2023/02/01 04:40:15;;;;;;;18.50;7.55;;;;;;;0.48;91.48;99474.47;1719256;83;21188;-63
2023/02/01 04:42:44;;;;;;;16.97;7.05;;;;;;;0.45;91.60;99472.94;1716336;83;21144;-63
2023/02/01 04:45:13;;;;;;;19.73;7.95;;;;;;;0.45;91.77;99478.31;1711886;83;21176;-64
2023/02/01 04:47:43;;;;;;;17.45;7.08;;;;;;;0.44;91.84;99478.48;1711820;84;21144;-63
2023/02/01 04:50:12;;;;;;;16.40;6.65;;;;;;;0.44;91.90;99481.17;1711877;84;21544;-63
2023/02/01 04:52:42;;;;;;;13.55;6.50;;;;;;;0.43;92.04;99472.74;1712060;83;21159;-64
2023/02/01 04:55:13;;;;;;;20.72;8.18;;;;;;;0.45;92.16;99469.39;1711882;83;21577;-62
2023/02/01 04:57:43;;;;;;;16.97;7.70;;;;;;;0.46;92.20;99477.81;1711796;83;21575;-62
2023/02/01 05:00:15;;;;;;;19.52;7.75;;;;;;;0.47;92.33;99472.77;1711971;84;21559;-63
2023/02/01 05:02:44;;;;;;;15.90;7.33;;;;;;;0.48;92.36;99473.12;1712027;83;21183;-62
2023/02/01 05:05:15;;;;;;;20.40;7.42;;;;;;;0.50;92.46;99470.61;1711918;84;21574;-63
2023/02/01 05:07:45;;;;;;;21.07;7.72;;;;;;;0.51;92.45;99472.81;1711828;83;21135;-62
2023/02/01 05:10:16;;;;;;;23.67;8.78;;;;;;;0.51;92.49;99468.27;1711803;83;21132;-64
2023/02/01 05:15:32;;;;;;;;;;;;;;;0.52;92.48;99474.50;1714370;84;21559;-62
2023/02/01 05:18:01;;;;;;;17.23;6.72;;;;;;;0.54;92.47;99463.06;1711854;83;20156;-63
2023/02/01 05:20:30;;;;;;;18.92;7.97;;;;;;;0.54;92.39;99469.30;1711504;83;21216;-63
2023/02/01 05:22:59;;;;;;;19.48;7.47;;;;;;;0.52;92.28;99465.06;1711822;83;21124;-64
2023/02/01 05:25:28;;;;;;;16.87;6.97;;;;;;;0.54;92.35;99468.45;1711926;83;21180;-63
2023/02/01 05:27:58;;;;;;;14.87;6.33;;;;;;;0.55;92.21;99462.06;1711811;83;21583;-64
2023/02/01 05:30:27;;;;;;;17.48;6.75;;;;;;;0.54;92.07;99471.14;1711485;84;21633;-63
2023/02/01 05:32:55;;;;;;;14.20;6.40;;;;;;;0.52;91.98;99464.56;1711813;84;21613;-64
2023/02/01 05:35:26;;;;;;;14.60;6.10;;;;;;;0.50;91.86;99468.42;1711938;83;21129;-63
2023/02/01 05:37:57;;;;;;;19.30;6.97;;;;;;;0.50;91.79;99464.38;1712064;83;21175;-63
2023/02/01 05:40:25;;;;;;;20.92;6.67;;;;;;;0.49;91.79;99459.48;1711826;83;21167;-63
2023/02/01 05:42:54;;;;;;;25.50;10.78;;;;;;;0.50;91.85;99449.56;1711784;83;21608;-62
2023/02/01 05:45:23;;;;;;;23.73;7.25;;;;;;;0.53;91.86;99464.91;1711867;84;21184;-63
2023/02/01 05:47:52;;;;;;;22.13;8.50;;;;;;;0.55;91.79;99461.55;1712084;84;21551;-63
2023/02/01 05:50:22;;;;;;;20.72;8.48;;;;;;;0.57;91.70;99465.44;1711650;83;21101;-63
2023/02/01 05:52:53;;;;;;;22.05;8.75;;;;;;;0.58;91.72;99455.85;1711849;83;21120;-63
2023/02/01 05:55:23;;;;;;;20.12;8.65;;;;;;;0.61;91.71;99462.78;1711752;83;21140;-63
2023/02/01 05:57:52;;;;;;;18.82;8.28;;;;;;;0.63;91.71;99454.03;1711802;83;21679;-63
2023/02/01 06:00:23;;;;;;;35.98;13.70;;;;;;;0.66;91.61;99461.84;1711958;84;21179;-65
2023/02/01 06:02:52;;;;;;;17.00;7.03;;;;;;;0.63;91.50;99462.97;1711670;84;21167;-64
2023/02/01 06:05:21;;;;;;;18.65;8.55;;;;;;;0.62;91.36;99458.58;1712035;84;21571;-62
2023/02/01 06:07:53;;;;;;;20.20;7.00;;;;;;;0.59;91.29;99461.59;1711764;83;21607;-63
2023/02/01 06:10:22;;;;;;;16.73;7.60;;;;;;;0.59;91.34;99457.55;1711937;84;21160;-64
2023/02/01 06:12:52;;;;;;;18.40;7.40;;;;;;;0.58;91.29;99455.01;1711871;84;21136;-64
2023/02/01 06:15:22;;;;;;;19.27;7.97;;;;;;;0.59;91.37;99454.85;1711763;83;21536;-63
2023/02/01 06:17:51;;;;;;;18.23;7.00;;;;;;;0.62;91.35;99457.73;1711949;83;21580;-63
2023/02/01 06:20:21;;;;;;;22.25;7.90;;;;;;;0.63;91.38;99460.27;1711933;84;21163;-64
2023/02/01 06:22:52;;;;;;;21.27;7.28;;;;;;;0.66;91.35;99468.58;1712051;83;21124;-64
2023/02/01 06:25:22;;;;;;;19.45;7.53;;;;;;;0.66;91.40;99461.84;1711903;83;21168;-64
2023/02/01 06:27:53;;;;;;;18.77;7.47;;;;;;;0.69;91.39;99462.88;1712014;84;21179;-64
2023/02/01 06:30:24;;;;;;;17.45;7.78;;;;;;;0.71;91.34;99464.91;1711774;83;21168;-65
2023/02/01 06:32:54;;;;;;;23.35;7.62;;;;;;;0.73;91.29;99466.09;1712204;83;21156;-65
2023/02/01 06:35:26;;;;;;;20.05;7.55;;;;;;;0.77;91.39;99458.88;1711886;83;21598;-66
2023/02/01 06:37:57;;;;;;;19.67;8.10;;;;;;;0.80;91.28;99455.87;1711889;83;21195;-64
2023/02/01 06:40:27;;;;;;;21.93;7.90;;;;;;;0.85;91.25;99456.23;1711959;83;21524;-63
2023/02/01 06:42:58;;;;;;;23.25;7.78;;;;;;;0.89;91.13;99454.07;1715604;82;21174;-65
2023/02/01 06:45:28;;;;;;;22.87;7.75;;;;;;;0.88;90.83;99457.27;1736134;81;21190;-64
2023/02/01 06:47:58;;;;;;;23.32;7.78;;;;;;;0.89;90.78;99458.11;1735931;82;21191;-64
2023/02/01 06:50:28;;;;;;;19.35;7.90;;;;;;;0.92;90.76;99455.09;1734505;83;21221;-64
2023/02/01 06:52:59;;;;;;;22.35;7.47;;;;;;;0.98;90.65;99452.27;1735968;82;21519;-65
2023/02/01 06:55:28;;;;;;;19.73;6.35;;;;;;;0.99;90.52;99450.75;1735788;83;21174;-65
2023/02/01 06:57:58;;;;;;;20.40;7.35;;;;;;;1.05;90.41;99455.51;1735949;82;21130;-64
2023/02/01 07:00:28;;;;;;;16.37;7.25;;;;;;;1.08;90.25;99451.14;1735882;82;21561;-65
2023/02/01 07:03:19;;;;;;;21.27;7.65;;;;;;;1.11;90.06;99456.72;1711546;83;21159;-64
2023/02/01 07:05:48;;;;;;;26.23;8.13;;;;;;;1.13;89.93;99460.11;1679629;85;21190;-63
2023/02/01 07:08:17;;;;;;;18.37;8.10;;;;;;;1.15;89.74;99448.14;1662468;86;21143;-64
2023/02/01 07:10:46;;;;;;;22.75;8.68;;;;;;;1.17;89.54;99440.73;1679323;85;21170;-64
2023/02/01 07:13:16;;;;;;;18.17;7.03;;;;;;;1.19;89.39;99441.92;1662154;86;21147;-64
2023/02/01 07:15:47;;;;;;;22.30;8.10;;;;;;;1.22;89.30;99445.65;1679520;84;21147;-63
2023/02/01 07:18:15;;;;;;;19.57;7.72;;;;;;;1.26;89.20;99440.27;1694281;85;21568;-63
2023/02/01 07:20:46;;;;;;;22.13;8.55;;;;;;;1.33;89.16;99433.75;1679753;85;21131;-64
2023/02/01 07:23:14;;;;;;;17.55;7.40;;;;;;;1.42;89.11;99436.83;1651473;85;21553;-65
2023/02/01 07:25:44;;;;;;;16.52;6.70;;;;;;;1.48;88.85;99430.77;1679678;84;21634;-64
2023/02/01 07:31:25;;;;;;;23.42;9.28;;;;;;;1.65;88.19;99416.31;1794822;76;22214;-64
2023/02/01 07:33:54;;;;;;;19.85;7.70;;;;;;;1.66;87.74;99418.52;1757292;82;21213;-62
2023/02/01 07:36:23;;;;;;;21.12;7.95;;;;;;;1.71;87.39;99414.81;1757244;82;21127;-65
2023/02/01 07:38:52;;;;;;;22.00;7.90;;;;;;;1.76;86.96;99416.51;1757245;82;21603;-65
2023/02/01 07:41:23;;;;;;;19.48;7.92;;;;;;;1.80;86.45;99414.66;1757246;82;21188;-66
2023/02/01 07:43:53;;;;;;;20.43;9.15;;;;;;;1.84;86.14;99409.77;1757188;81;21179;-64
2023/02/01 07:46:22;;;;;;;21.25;8.20;;;;;;;1.87;85.79;99404.88;1728378;82;21179;-63
2023/02/01 07:48:52;;;;;;;18.52;7.20;;;;;;;1.93;85.49;99404.72;1757181;82;21127;-65
2023/02/01 07:51:20;;;;;;;20.25;7.80;;;;;;;1.99;85.31;99412.19;1757430;82;21574;-62
2023/02/01 07:53:50;;;;;;;18.25;7.28;;;;;;;2.06;85.28;99407.80;1757233;81;21632;-64
2023/02/01 07:56:22;;;;;;;18.37;7.33;;;;;;;2.13;84.88;99406.63;1757469;81;21159;-70
2023/02/01 07:58:53;;;;;;;23.90;10.53;;;;;;;2.17;84.54;99411.52;1757259;82;21100;-64
2023/02/01 08:01:24;;;;;;;24.20;9.38;;;;;;;2.20;84.22;99405.78;1757247;82;21136;-66
2023/02/01 08:03:59;;;;;;;32.55;11.85;;;;;;;2.25;83.87;99401.73;1757562;82;21096;-64
2023/02/01 08:06:31;;;;;;;29.67;11.38;;;;;;;2.27;83.48;99402.41;1757311;82;21116;-64
2023/02/01 08:09:00;;;;;;;20.23;8.00;;;;;;;2.32;83.34;99408.99;1757376;82;21119;-64
2023/02/01 08:11:30;;;;;;;25.48;9.83;;;;;;;2.41;82.98;99399.87;1757470;82;21132;-65
2023/02/01 08:14:01;;;;;;;37.05;13.00;;;;;;;2.49;82.42;99394.45;1757259;82;21144;-65
2023/02/01 08:16:33;;;;;;;26.48;10.28;;;;;;;2.59;81.96;99390.72;1757513;82;21132;-63
2023/02/01 08:19:02;;;;;;;31.68;11.00;;;;;;;2.75;81.20;99393.42;1757445;82;21124;-63
2023/02/01 08:21:37;;;;;;;24.30;8.93;;;;;;;2.93;80.92;99389.99;1757232;82;21128;-64
2023/02/01 08:24:08;;;;;;;28.62;10.93;;;;;;;3.13;79.33;99393.14;1757444;81;21634;-63
2023/02/01 08:26:39;;;;;;;24.32;11.20;;;;;;;3.28;79.35;99395.48;1728339;82;21571;-63
2023/02/01 08:29:10;;;;;;;19.12;7.92;;;;;;;3.47;79.10;99390.14;1757164;82;21119;-65
2023/02/01 08:31:43;;;;;;;18.40;7.25;;;;;;;3.61;78.44;99387.20;1755580;82;21152;-65
2023/02/01 08:34:12;;;;;;;17.15;7.78;;;;;;;3.77;77.43;99389.30;1754549;82;21575;-64
2023/02/01 08:36:43;;;;;;;18.15;7.30;;;;;;;3.98;76.74;99384.61;1690337;85;21651;-62
2023/02/01 08:39:12;;;;;;;22.55;7.83;;;;;;;4.17;76.03;99380.57;1690112;84;21162;-63
2023/02/01 08:41:42;;;;;;;18.55;7.50;;;;;;;4.29;74.76;99381.83;1690079;85;21600;-63
2023/02/01 08:44:11;;;;;;;15.55;7.25;;;;;;;4.35;74.17;99384.31;1689707;85;21142;-63
2023/02/01 08:46:40;;;;;;;18.42;8.05;;;;;;;4.36;73.57;99381.94;1689399;85;21834;-64
2023/02/01 08:49:10;;;;;;;14.47;6.85;;;;;;;4.31;72.42;99380.28;1689529;84;21181;-65
2023/02/01 08:51:41;;;;;;;11.80;5.62;;;;;;;4.21;71.29;99382.41;1697694;83;22119;-63
2023/02/01 08:54:12;;;;;;;18.67;6.58;;;;;;;4.04;70.14;99371.69;1709838;82;21150;-64
2023/02/01 08:56:41;;;;;;;16.00;6.80;;;;;;;3.86;70.33;99368.41;1710913;83;21135;-64
2023/02/01 08:59:10;;;;;;;18.75;7.28;;;;;;;3.77;70.95;99358.65;1700862;84;21158;-61
2023/02/01 09:01:41;;;;;;;16.37;6.10;;;;;;;3.71;71.67;99347.18;1720376;83;21163;-66
2023/02/01 09:04:13;;;;;;;18.12;6.55;;;;;;;3.75;72.81;99353.92;1678686;85;21207;-64
2023/02/01 09:06:42;;;;;;;15.45;6.30;;;;;;;3.72;71.81;99346.16;1713259;84;21131;-65
2023/02/01 09:09:11;;;;;;;14.33;6.20;;;;;;;3.70;71.46;99345.49;1752359;82;21133;-65
2023/02/01 09:11:41;;;;;;;14.38;6.08;;;;;;;3.67;71.01;99345.85;1757055;82;21150;-63
2023/02/01 09:14:11;;;;;;;15.40;5.95;;;;;;;3.60;71.02;99336.25;1757045;82;21165;-65
2023/02/01 09:16:40;;;;;;;14.15;5.45;;;;;;;3.60;71.21;99342.17;1756751;82;21146;-64
2023/02/01 09:19:09;;;;;;;12.68;5.65;;;;;;;3.57;70.15;99333.05;1756842;82;21158;-64
2023/02/01 09:21:40;;;;;;;13.05;5.55;;;;;;;3.49;69.75;99333.44;1753341;82;21853;-66
2023/02/01 09:24:11;;;;;;;14.38;5.78;;;;;;;3.42;69.84;99327.05;1756740;82;21130;-65
2023/02/01 09:26:40;;;;;;;14.75;5.70;;;;;;;3.38;70.17;99315.41;1753789;82;21127;-64
2023/02/01 09:29:11;;;;;;;13.65;5.40;;;;;;;3.36;69.44;99316.94;1753701;81;21742;-65
2023/02/01 09:31:41;;;;;;;14.20;4.87;;;;;;;3.37;69.43;99312.36;1747610;80;21115;-64
2023/02/01 09:34:12;;;;;;;14.53;5.92;;;;;;;3.35;69.05;99312.54;1741939;81;21594;-63
2023/02/01 09:36:41;;;;;;;12.40;5.33;;;;;;;3.35;68.18;99308.48;1743755;81;21147;-66
2023/02/01 09:39:10;;;;;;;14.43;5.37;;;;;;;3.35;68.06;99322.02;1743153;82;21151;-65
2023/02/01 09:42:02;;;;;;;15.50;6.60;;;;;;;3.33;67.39;99310.52;1743150;82;21123;-65
2023/02/01 09:44:59;;;;;;;18.37;6.08;;;;;;;3.30;67.60;99304.11;1743470;81;21207;-65
2023/02/01 09:47:28;;;;;;;25.40;7.67;;;;;;;3.31;68.01;99301.73;1743494;81;21570;-65
2023/02/01 09:50:07;;;;;;;12.45;4.92;;;;;;;3.35;68.39;99311.19;1742998;82;21115;-64
2023/02/01 09:52:44;;;;;;;25.62;5.28;;;;;;;3.36;68.04;99293.92;1743162;81;21151;-64
2023/02/01 09:55:36;;;;;;;11.88;4.78;;;;;;;3.38;68.15;99295.94;1735233;81;21127;-65
2023/02/01 09:58:39;;;;;;;14.33;5.42;;;;;;;3.35;67.73;99290.88;1722419;82;21195;-65
2023/02/01 10:01:19;;;;;;;11.08;4.42;;;;;;;3.30;67.74;99284.32;1740847;82;21108;-65
2023/02/01 10:03:48;;;;;;;11.12;4.50;;;;;;;3.27;67.82;99298.20;1741024;81;21113;-63
2023/02/01 10:06:40;;;;;;;16.95;4.97;;;;;;;3.22;67.27;99297.88;1740959;82;21128;-66
2023/02/01 10:09:48;;;;;;;13.98;4.35;;;;;;;3.16;67.55;99302.13;1718338;82;21160;-64
2023/02/01 10:12:32;;;;;;;12.18;4.72;;;;;;;3.10;67.73;99292.02;1740771;82;21552;-64
2023/02/01 10:15:55;;;;;;;12.70;5.03;;;;;;;3.00;68.13;99284.63;1740990;82;21216;-64
2023/02/01 10:19:04;;;;;;;13.18;4.80;;;;;;;2.94;68.72;99279.92;1711531;82;21235;-63
2023/02/01 10:22:00;;;;;;;20.30;5.08;;;;;;;2.90;69.09;99275.88;1741224;82;21112;-64
2023/02/01 10:24:57;;;;;;;11.20;4.55;;;;;;;2.82;69.39;99280.31;1740816;82;21585;-65
2023/02/01 10:27:36;;;;;;;14.43;4.55;;;;;;;2.78;69.38;99274.07;1687160;82;21120;-65
2023/02/01 10:30:19;;;;;;;10.82;4.70;;;;;;;2.72;69.53;99259.39;1740908;82;21160;-64
2023/02/01 10:33:18;;;;;;;10.70;4.53;;;;;;;2.63;69.91;99265.85;1740629;82;21612;-65
2023/02/01 10:35:47;;;;;;;12.15;4.95;;;;;;;2.57;70.37;99257.56;1741181;82;21105;-64
2023/02/01 10:38:26;;;;;;;11.50;5.12;;;;;;;2.50;70.61;99262.83;1729902;82;21156;-63
2023/02/01 10:40:59;;;;;;;13.43;5.37;;;;;;;2.44;71.30;99256.77;1725318;83;21119;-66
2023/02/01 10:43:29;;;;;;;15.85;5.70;;;;;;;2.42;71.54;99250.69;1725144;82;21597;-65
2023/02/01 10:45:58;;;;;;;12.65;5.08;;;;;;;2.40;71.80;99251.38;1725414;82;21122;-68
2023/02/01 10:48:27;;;;;;;11.30;4.45;;;;;;;2.41;72.18;99247.65;1725364;82;21205;-64
2023/02/01 10:51:01;;;;;;;11.08;4.35;;;;;;;2.40;72.04;99247.31;1725028;83;21562;-66
2023/02/01 10:54:00;;;;;;;14.05;5.30;;;;;;;2.38;72.29;99250.70;1725075;82;21159;-64
2023/02/01 10:56:29;;;;;;;8.68;3.87;;;;;;;2.36;72.62;99244.63;1725367;82;21151;-65
2023/02/01 10:59:07;;;;;;;10.45;4.42;;;;;;;2.32;72.99;99241.42;1722344;83;21195;-64
2023/02/01 11:01:39;;;;;;;11.90;4.58;;;;;;;2.30;73.56;99239.91;1715202;82;21202;-65
2023/02/01 11:04:20;;;;;;;10.30;4.53;;;;;;;2.30;74.29;99238.56;1715200;82;21119;-64
2023/02/01 11:06:52;;;;;;;13.80;4.75;;;;;;;2.27;74.91;99234.34;1715077;83;21127;-67
2023/02/01 11:09:23;;;;;;;15.43;5.90;;;;;;;2.26;75.51;99235.88;1714988;84;21143;-66
2023/02/01 11:11:58;;;;;;;9.83;4.50;;;;;;;2.26;76.49;99235.88;1715395;84;21527;-66
2023/02/01 11:14:40;;;;;;;12.18;5.17;;;;;;;2.22;76.77;99232.67;1715307;84;21151;-66
2023/02/01 11:17:19;;;;;;;12.50;5.03;;;;;;;2.22;77.40;99230.81;1715229;84;21120;-65
2023/02/01 11:20:01;;;;;;;17.27;6.62;;;;;;;2.18;78.09;99233.53;1715378;84;21131;-66
2023/02/01 11:22:30;;;;;;;19.35;7.85;;;;;;;2.18;78.58;99234.03;1715197;84;21173;-64
2023/02/01 11:24:59;;;;;;;21.00;8.78;;;;;;;2.14;79.26;99225.43;1715206;84;21128;-68
2023/02/01 11:27:29;;;;;;;43.20;13.22;;;;;;;2.15;80.06;99224.41;1715229;84;21139;-66
2023/02/01 11:30:01;;;;;;;16.40;6.85;;;;;;;2.12;80.43;99220.70;1715045;84;21547;-65
2023/02/01 11:32:31;;;;;;;17.77;6.90;;;;;;;2.11;81.04;99216.83;1717066;82;21127;-64
2023/02/01 11:35:04;;;;;;;19.73;6.12;;;;;;;2.11;81.52;99209.56;1715299;84;21581;-66
2023/02/01 11:37:41;;;;;;;16.37;6.87;;;;;;;2.11;82.26;99212.27;1715408;82;21095;-64
2023/02/01 11:40:20;;;;;;;;;;;;;;;2.15;83.01;99212.77;1717690;84;21155;-66
2023/02/01 11:43:00;;;;;;;15.23;6.35;;;;;;;2.18;83.54;99210.56;1715361;84;20171;-66
2023/02/01 11:45:31;;;;;;;20.27;6.60;;;;;;;2.19;83.80;99201.95;1715246;82;21147;-67
2023/02/01 11:48:00;;;;;;;15.32;6.83;;;;;;;2.22;84.13;99212.41;1715342;82;21195;-64
2023/02/01 11:50:39;;;;;;;12.85;6.20;;;;;;;2.25;84.29;99205.81;1715016;82;21151;-66
2023/02/01 11:53:43;;;;;;;16.50;6.22;;;;;;;2.27;84.57;99201.92;1715117;84;21139;-64
2023/02/01 11:56:30;;;;;;;12.55;5.72;;;;;;;2.29;84.63;99199.05;1715338;82;21148;-65
2023/02/01 11:59:31;;;;;;;;;;;;;;;2.27;84.70;99195.67;1726853;82;21155;-67
2023/02/01 12:02:21;;;;;;;17.30;5.22;;;;;;;2.22;84.67;99198.39;1743648;81;20195;-62
2023/02/01 12:05:33;;;;;;;13.45;5.92;;;;;;;2.19;84.76;99195.19;1741789;82;21119;-66
2023/02/01 12:08:30;;;;;;;10.43;5.60;;;;;;;2.19;84.93;99189.78;1743170;81;21112;-65
2023/02/01 12:11:25;;;;;;;11.88;5.25;;;;;;;2.21;85.04;99194.51;1743330;81;21211;-65
2023/02/01 12:14:23;;;;;;;11.45;5.42;;;;;;;2.19;84.87;99186.58;1743220;81;21186;-67
2023/02/01 12:17:08;;;;;;;10.05;5.30;;;;;;;2.16;84.51;99191.48;1744326;81;21179;-66
2023/02/01 12:20:05;;;;;;;12.33;5.53;;;;;;;2.13;84.47;99187.78;1733140;81;21190;-64
2023/02/01 12:23:21;;;;;;;11.38;5.42;;;;;;;2.10;84.32;99185.42;1744077;81;21127;-68
2023/02/01 12:26:40;;;;;;;11.57;5.12;;;;;;;2.08;84.34;99182.89;1742129;81;21518;-66
2023/02/01 12:29:43;;;;;;;11.12;4.92;;;;;;;2.07;84.42;99183.07;1713243;83;21620;-66
2023/02/01 12:32:53;;;;;;;12.75;5.45;;;;;;;2.01;84.72;99184.61;1710544;83;21139;-68
2023/02/01 12:35:46;;;;;;;12.35;5.55;;;;;;;1.96;84.92;99174.83;1691307;84;21160;-66
2023/02/01 12:38:44;;;;;;;10.45;5.00;;;;;;;1.95;85.19;99179.89;1682989;84;21137;-67
2023/02/01 12:41:36;;;;;;;10.30;4.80;;;;;;;1.93;85.56;99182.40;1661639;85;21172;-65
2023/02/01 12:44:42;;;;;;;11.55;5.65;;;;;;;1.87;85.65;99178.02;1684901;84;21589;-66
2023/02/01 12:47:34;;;;;;;13.48;5.33;;;;;;;1.87;85.97;99171.27;1712942;82;21543;-64
2023/02/01 12:50:26;;;;;;;16.85;6.60;;;;;;;1.89;85.97;99171.09;1748818;81;21633;-66
2023/02/01 12:53:03;;;;;;;14.50;6.30;;;;;;;1.90;86.13;99172.78;1757775;81;21177;-65
2023/02/01 12:55:41;;;;;;;11.65;5.78;;;;;;;1.94;86.32;99174.64;1758751;80;21126;-64
2023/02/01 12:58:35;;;;;;;11.48;5.60;;;;;;;1.97;86.41;99178.37;1685253;85;21107;-66
2023/02/01 13:01:21;;;;;;;14.20;5.85;;;;;;;1.96;86.45;99177.53;1636984;87;21659;-67
2023/02/01 13:04:16;;;;;;;10.40;5.50;;;;;;;1.92;86.58;99174.80;1637068;86;21189;-65
2023/02/01 13:06:54;;;;;;;14.35;5.67;;;;;;;1.92;86.74;99178.86;1639779;87;21155;-65
2023/02/01 13:09:34;;;;;;;13.98;6.20;;;;;;;1.89;86.73;99175.16;1617359;88;21238;-66
2023/02/01 13:12:10;;;;;;;13.45;5.37;;;;;;;1.88;86.90;99170.26;1617653;88;21242;-65
2023/02/01 13:14:50;;;;;;;15.25;7.45;;;;;;;1.88;87.04;99176.17;1617741;89;21217;-65
2023/02/01 13:17:28;;;;;;;11.53;6.17;;;;;;;1.87;87.20;99172.63;1683597;85;21715;-64
2023/02/01 13:20:11;;;;;;;13.88;5.92;;;;;;;1.89;87.24;99175.99;1692328;85;21620;-65
2023/02/01 13:22:53;;;;;;;13.65;6.60;;;;;;;1.91;87.29;99177.17;1692500;85;21190;-64
2023/02/01 13:25:37;;;;;;;10.40;5.40;;;;;;;1.93;87.25;99167.55;1693587;84;21114;-63
2023/02/01 13:28:20;;;;;;;11.25;5.80;;;;;;;1.93;87.19;99170.25;1741638;81;21693;-64
2023/02/01 13:31:19;;;;;;;16.50;6.10;;;;;;;1.94;87.33;99168.73;1724475;81;21158;-66
2023/02/01 13:34:27;;;;;;;18.07;7.72;;;;;;;1.93;87.42;99173.80;1701691;82;21563;-66
2023/02/01 13:37:33;;;;;;;17.45;7.25;;;;;;;1.90;87.59;99170.08;1737352;82;21573;-67
2023/02/01 13:40:25;;;;;;;16.67;6.20;;;;;;;1.87;87.87;99173.97;1737387;82;21159;-65
2023/02/01 13:42:58;;;;;;;12.60;6.20;;;;;;;1.85;88.00;99168.41;1737516;82;21142;-63
2023/02/01 13:45:30;;;;;;;13.20;6.10;;;;;;;1.84;88.23;99178.87;1737565;82;21338;-64
2023/02/01 13:48:04;;;;;;;14.10;6.42;;;;;;;1.82;88.49;99176.34;1709201;82;21128;-64
2023/02/01 13:50:38;;;;;;;13.55;6.80;;;;;;;1.82;88.68;99174.16;1715245;82;21214;-64
2023/02/01 13:53:17;;;;;;;15.65;7.17;;;;;;;1.81;88.84;99172.47;1737411;82;21190;-65
2023/02/01 13:56:06;;;;;;;14.18;7.35;;;;;;;1.77;89.04;99173.83;1737313;82;21111;-63
2023/02/01 13:58:39;;;;;;;12.78;6.17;;;;;;;1.77;89.28;99172.48;1731901;82;21577;-64
2023/02/01 14:01:28;;;;;;;16.00;7.55;;;;;;;1.77;89.55;99180.07;1702361;84;21316;-65
2023/02/01 14:04:06;;;;;;;14.35;6.75;;;;;;;1.76;89.63;99172.14;1702651;84;21166;-65
2023/02/01 14:06:42;;;;;;;16.80;7.75;;;;;;;1.72;89.85;99178.90;1702751;84;21150;-66